createdAt,value
2022-12-03T00:00:56.723Z,-3.17
2022-12-03T00:03:24.443Z,-3.01
2022-12-03T00:05:51.815Z,-3.10
2022-12-03T00:08:19.441Z,-3.22
2022-12-03T00:10:46.839Z,-3.15
2022-12-03T00:13:14.266Z,-3.17
2022-12-03T00:15:41.493Z,-3.20
2022-12-03T00:18:09.021Z,-3.20
2022-12-03T00:20:36.238Z,-3.02
2022-12-03T00:23:03.780Z,-3.10
2022-12-03T00:25:31.013Z,-2.93
2022-12-03T00:27:58.580Z,-3.05
2022-12-03T00:30:25.769Z,-3.02
2022-12-03T00:32:53.391Z,-3.12
2022-12-03T00:35:20.668Z,-3.05
2022-12-03T00:37:48.309Z,-3.11
2022-12-03T00:40:15.876Z,-3.19
2022-12-03T00:42:43.431Z,-3.22
2022-12-03T00:45:10.964Z,-2.95
2022-12-03T00:47:38.629Z,-2.97
2022-12-03T00:50:06.956Z,-2.90
2022-12-03T00:52:34.519Z,-2.91
2022-12-03T00:55:01.761Z,-2.99
2022-12-03T00:57:29.345Z,-3.09
2022-12-03T00:59:56.558Z,-3.00
2022-12-03T01:02:24.120Z,-2.96
2022-12-03T01:04:51.898Z,-3.03
2022-12-03T01:07:19.729Z,-2.99
2022-12-03T01:09:46.880Z,-3.16
2022-12-03T01:12:14.485Z,-3.16
2022-12-03T01:14:41.791Z,-3.30
2022-12-03T01:17:09.277Z,-3.29
2022-12-03T01:19:36.776Z,-3.32
2022-12-03T01:22:04.619Z,-3.28
2022-12-03T01:24:31.906Z,-3.35
2022-12-03T01:27:01.032Z,-3.12
2022-12-03T01:29:28.288Z,-3.04
2022-12-03T01:32:14.321Z,-3.22
2022-12-03T01:34:41.557Z,-3.34
2022-12-03T01:37:09.694Z,-3.25
2022-12-03T01:39:36.977Z,-3.53
2022-12-03T01:42:05.463Z,-3.49
2022-12-03T01:44:34.983Z,-3.70
2022-12-03T01:47:05.944Z,-3.52
2022-12-03T01:49:54.345Z,-3.61
2022-12-03T01:52:27.428Z,-3.50
2022-12-03T01:54:57.129Z,-3.46
2022-12-03T01:57:32.256Z,-3.53
2022-12-03T02:00:00.672Z,-3.56
2022-12-03T02:02:32.548Z,-3.96
2022-12-03T02:05:01.599Z,-3.84
2022-12-03T02:07:33.866Z,-3.70
2022-12-03T02:10:03.740Z,-4.04
2022-12-03T02:12:35.884Z,-3.71
2022-12-03T02:15:05.340Z,-3.97
2022-12-03T02:17:32.882Z,-3.99
2022-12-03T02:20:01.865Z,-4.15
2022-12-03T02:22:43.756Z,-3.89
2022-12-03T02:25:19.469Z,-3.83
2022-12-03T02:27:48.143Z,-3.88
2022-12-03T02:30:19.367Z,-3.75
2022-12-03T02:32:48.060Z,-3.90
2022-12-03T02:35:18.750Z,-3.95
2022-12-03T02:37:47.725Z,-3.78
2022-12-03T02:41:07.820Z,-3.94
2022-12-03T02:43:35.738Z,-4.18
2022-12-03T02:46:03.983Z,-3.85
2022-12-03T02:48:40.097Z,-3.98
2022-12-03T02:51:10.368Z,-3.94
2022-12-03T02:53:44.577Z,-3.95
2022-12-03T02:56:18.312Z,-3.97
2022-12-03T02:58:48.694Z,-4.10
2022-12-03T03:01:17.195Z,-4.15
2022-12-03T03:03:47.016Z,-4.13
2022-12-03T03:06:15.685Z,-3.99
2022-12-03T03:08:43.746Z,-3.68
2022-12-03T03:11:11.754Z,-3.68
2022-12-03T03:13:39.954Z,-3.93
2022-12-03T03:16:08.472Z,-3.99
2022-12-03T03:18:37.033Z,-4.05
2022-12-03T03:21:05.290Z,-3.99
2022-12-03T03:23:33.076Z,-4.15
2022-12-03T03:26:05.541Z,-3.85
2022-12-03T03:28:36.055Z,-3.94
2022-12-03T03:31:07.249Z,-3.83
2022-12-03T03:33:36.720Z,-3.77
2022-12-03T03:36:04.502Z,-3.97
2022-12-03T03:38:32.817Z,-4.09
2022-12-03T03:41:02.890Z,-4.06
2022-12-03T03:43:30.997Z,-4.01
2022-12-03T03:45:58.455Z,-3.84
2022-12-03T03:48:26.449Z,-3.99
2022-12-03T03:50:54.078Z,-4.16
2022-12-03T03:53:23.266Z,-4.08
2022-12-03T03:55:51.334Z,-3.90
2022-12-03T03:58:18.863Z,-3.94
2022-12-03T04:00:46.787Z,-3.84
2022-12-03T04:03:14.554Z,-3.85
2022-12-03T04:05:41.923Z,-3.90
2022-12-03T04:08:09.717Z,-3.99
2022-12-03T04:10:55.566Z,-4.12
2022-12-03T04:13:23.249Z,-4.09
2022-12-03T04:15:50.501Z,-3.99
2022-12-03T04:18:36.849Z,-3.93
2022-12-03T04:21:22.837Z,-3.83
2022-12-03T04:23:50.396Z,-4.13
2022-12-03T04:26:36.289Z,-3.83
2022-12-03T04:29:03.872Z,-3.72
2022-12-03T04:31:49.580Z,-3.77
2022-12-03T04:34:35.863Z,-3.71
2022-12-03T04:37:03.610Z,-3.86
2022-12-03T04:39:31.478Z,-4.01
2022-12-03T04:41:58.666Z,-3.87
2022-12-03T04:44:38.296Z,-3.76
2022-12-03T04:47:17.668Z,-3.73
2022-12-03T04:49:50.542Z,-3.61
2022-12-03T04:52:20.396Z,-3.88
2022-12-03T04:54:48.200Z,-3.79
2022-12-03T04:57:15.513Z,-3.80
2022-12-03T04:59:42.933Z,-4.03
2022-12-03T05:02:10.368Z,-3.90
2022-12-03T05:04:38.086Z,-3.84
2022-12-03T05:07:05.325Z,-3.81
2022-12-03T05:09:33.259Z,-3.72
2022-12-03T05:12:00.843Z,-3.83
2022-12-03T05:14:28.246Z,-3.80
2022-12-03T05:16:55.444Z,-3.83
2022-12-03T05:19:42.962Z,-3.90
2022-12-03T05:22:10.154Z,-3.90
2022-12-03T05:24:37.790Z,-3.80
2022-12-03T05:27:05.015Z,-3.79
2022-12-03T05:29:32.675Z,-3.72
2022-12-03T05:31:59.957Z,-3.92
2022-12-03T05:34:27.515Z,-3.76
2022-12-03T05:36:54.633Z,-3.90
2022-12-03T05:39:22.171Z,-3.91
2022-12-03T05:42:07.897Z,-3.91
2022-12-03T05:44:35.363Z,-3.81
2022-12-03T05:47:02.598Z,-3.78
2022-12-03T05:49:30.197Z,-3.96
2022-12-03T05:51:58.827Z,-4.04
2022-12-03T05:54:26.662Z,-4.06
2022-12-03T05:56:53.890Z,-3.94
2022-12-03T05:59:21.680Z,-4.03
2022-12-03T06:01:48.964Z,-3.86
2022-12-03T06:04:16.365Z,-3.86
2022-12-03T06:06:43.475Z,-3.70
2022-12-03T06:09:11.155Z,-3.89
2022-12-03T06:11:39.986Z,-4.09
2022-12-03T06:14:07.758Z,-4.08
2022-12-03T06:16:34.994Z,-3.85
2022-12-03T06:19:02.735Z,-3.67
2022-12-03T06:21:29.975Z,-3.79
2022-12-03T06:23:57.595Z,-3.76
2022-12-03T06:26:24.720Z,-3.86
2022-12-03T06:28:52.524Z,-4.05
2022-12-03T06:31:19.799Z,-3.77
2022-12-03T06:33:47.349Z,-3.72
2022-12-03T06:36:17.703Z,-3.87
2022-12-03T06:38:47.378Z,-3.89
2022-12-03T06:41:14.567Z,-3.82
2022-12-03T06:43:42.065Z,-3.93
2022-12-03T06:46:09.260Z,-4.09
2022-12-03T06:48:36.863Z,-3.88
2022-12-03T06:51:04.369Z,-3.98
2022-12-03T06:53:31.979Z,-3.94
2022-12-03T06:55:59.958Z,-3.99
2022-12-03T06:58:27.644Z,-3.73
2022-12-03T07:00:54.822Z,-3.91
2022-12-03T07:03:22.458Z,-3.74
2022-12-03T07:05:49.619Z,-3.83
2022-12-03T07:08:18.261Z,-3.83
2022-12-03T07:10:45.782Z,-3.83
2022-12-03T07:13:13.505Z,-3.83
2022-12-03T07:15:40.979Z,-3.83
2022-12-03T07:18:08.771Z,-3.62
2022-12-03T07:20:36.168Z,-3.62
2022-12-03T07:23:03.905Z,-3.80
2022-12-03T07:25:31.379Z,-3.67
2022-12-03T07:27:58.949Z,-3.57
2022-12-03T07:30:27.873Z,-3.54
2022-12-03T07:32:56.813Z,-3.62
2022-12-03T07:35:24.427Z,-3.60
2022-12-03T07:37:52.081Z,-3.56
2022-12-03T07:40:19.278Z,-3.49
2022-12-03T07:42:46.919Z,-3.43
2022-12-03T07:45:14.332Z,-3.55
2022-12-03T07:47:42.191Z,-3.65
2022-12-03T07:50:11.077Z,-3.44
2022-12-03T07:52:38.731Z,-3.71
2022-12-03T07:55:16.277Z,-3.50
2022-12-03T07:57:44.317Z,-3.39
2022-12-03T08:00:12.568Z,-3.32
2022-12-03T08:02:40.640Z,-3.38
2022-12-03T08:05:08.304Z,-3.35
2022-12-03T08:07:36.021Z,-3.34
2022-12-03T08:10:04.874Z,-3.39
2022-12-03T08:12:41.883Z,-3.36
2022-12-03T08:15:16.172Z,-3.23
2022-12-03T08:17:46.053Z,-3.19
2022-12-03T08:20:19.618Z,-3.23
2022-12-03T08:22:49.754Z,-3.41
2022-12-03T08:25:24.949Z,-3.35
2022-12-03T08:27:56.681Z,-3.32
2022-12-03T08:30:24.108Z,-3.22
2022-12-03T08:32:52.941Z,-3.18
2022-12-03T08:35:30.984Z,-3.24
2022-12-03T08:38:10.487Z,-3.24
2022-12-03T08:40:42.446Z,-3.24
2022-12-03T08:43:27.759Z,-3.17
2022-12-03T08:45:57.172Z,-3.18
2022-12-03T08:51:27.547Z,-3.03
2022-12-03T08:54:04.546Z,-3.00
2022-12-03T08:56:37.119Z,-3.04
2022-12-03T08:59:39.402Z,-3.01
2022-12-03T09:05:35.150Z,-3.10
2022-12-03T09:08:02.865Z,-3.08
2022-12-03T09:10:32.122Z,-3.05
2022-12-03T09:13:03.651Z,-3.01
2022-12-03T09:15:33.577Z,-2.99
2022-12-03T09:18:01.032Z,-3.06
2022-12-03T09:20:28.593Z,-3.11
2022-12-03T09:22:56.003Z,-3.04
2022-12-03T09:25:23.739Z,-2.96
2022-12-03T09:27:50.939Z,-3.04
2022-12-03T09:30:19.188Z,-3.04
2022-12-03T09:32:46.880Z,-3.03
2022-12-03T09:35:14.979Z,-3.04
2022-12-03T09:37:45.575Z,-3.03
2022-12-03T09:40:13.851Z,-2.94
2022-12-03T09:42:41.837Z,-2.94
2022-12-03T09:45:13.047Z,-2.92
2022-12-03T09:47:49.596Z,-2.85
2022-12-03T09:50:21.888Z,-2.95
2022-12-03T09:52:51.159Z,-2.89
2022-12-03T09:55:23.105Z,-2.85
2022-12-03T09:57:52.939Z,-2.98
2022-12-03T10:00:25.399Z,-3.01
2022-12-03T10:02:56.326Z,-3.02
2022-12-03T10:05:24.872Z,-2.94
2022-12-03T10:07:53.484Z,-2.83
2022-12-03T10:10:24.109Z,-2.87
2022-12-03T10:12:52.445Z,-2.72
2022-12-03T10:15:23.228Z,-2.74
2022-12-03T10:17:54.824Z,-2.76
2022-12-03T10:20:25.449Z,-2.75
2022-12-03T10:22:52.977Z,-2.59
2022-12-03T10:25:22.597Z,-2.67
2022-12-03T10:28:04.086Z,-2.72
2022-12-03T10:30:32.246Z,-2.54
2022-12-03T10:33:15.704Z,-2.51
2022-12-03T10:35:46.452Z,-2.53
2022-12-03T10:38:16.682Z,-2.52
2022-12-03T10:40:44.861Z,-2.51
2022-12-03T10:43:20.973Z,-2.52
2022-12-03T10:45:51.936Z,-2.46
2022-12-03T10:48:25.668Z,-2.48
2022-12-03T10:51:02.742Z,-2.48
2022-12-03T10:53:32.251Z,-2.50
2022-12-03T10:56:05.066Z,-2.35
2022-12-03T10:58:38.765Z,-2.39
2022-12-03T11:04:05.194Z,-2.36
2022-12-03T11:06:36.037Z,-2.39
2022-12-03T11:09:08.883Z,-2.23
2022-12-03T11:11:37.408Z,-2.12
2022-12-03T11:14:05.706Z,-2.15
2022-12-03T11:16:40.118Z,-2.19
2022-12-03T11:19:13.763Z,-2.12
2022-12-03T11:22:14.442Z,-2.17
2022-12-03T11:24:42.085Z,-2.23
2022-12-03T11:27:10.179Z,-2.12
2022-12-03T11:29:52.851Z,-2.20
2022-12-03T11:32:39.277Z,-2.15
2022-12-03T11:35:29.070Z,-2.24
2022-12-03T11:38:35.648Z,-2.22
2022-12-03T11:41:18.400Z,-2.07
2022-12-03T11:44:04.331Z,-2.14
2022-12-03T11:46:37.818Z,-2.25
2022-12-03T11:49:33.131Z,-2.15
2022-12-03T11:52:12.017Z,-2.16
2022-12-03T11:54:40.220Z,-2.17
2022-12-03T12:00:21.783Z,-2.17
2022-12-03T12:02:50.293Z,-2.15
2022-12-03T12:05:25.857Z,-2.08
2022-12-03T12:07:54.329Z,-1.99
2022-12-03T12:11:01.050Z,-1.97
2022-12-03T12:13:31.347Z,-2.18
2022-12-03T12:16:01.238Z,-2.20
2022-12-03T12:18:37.641Z,-2.03
2022-12-03T12:21:49.079Z,-1.94
2022-12-03T12:24:43.730Z,-2.13
2022-12-03T12:27:39.469Z,-2.15
2022-12-03T12:30:12.982Z,-2.04
2022-12-03T12:32:51.069Z,-2.21
2022-12-03T12:35:31.037Z,-2.24
2022-12-03T12:38:08.875Z,-2.26
2022-12-03T12:40:45.259Z,-2.33
2022-12-03T12:43:23.736Z,-2.16
2022-12-03T12:45:55.496Z,-2.25
2022-12-03T12:48:31.445Z,-2.14
2022-12-03T12:51:01.384Z,-2.15
2022-12-03T12:53:35.732Z,-2.15
2022-12-03T12:56:22.150Z,-2.27
2022-12-03T12:58:50.670Z,-2.27
2022-12-03T13:01:31.957Z,-2.29
2022-12-03T13:04:00.362Z,-2.28
2022-12-03T13:06:45.256Z,-2.20
2022-12-03T13:09:17.984Z,-2.13
2022-12-03T13:11:58.240Z,-2.20
2022-12-03T13:17:26.266Z,-2.41
2022-12-03T13:22:54.366Z,-2.38
2022-12-03T13:28:22.840Z,-2.26
2022-12-03T13:31:00.522Z,-2.25
2022-12-03T13:33:28.145Z,-2.23
2022-12-03T13:36:09.809Z,-2.38
2022-12-03T13:38:37.614Z,-2.25
2022-12-03T13:41:12.013Z,-2.32
2022-12-03T13:43:44.635Z,-2.38
2022-12-03T13:49:02.192Z,-2.41
2022-12-03T13:51:33.742Z,-2.24
2022-12-03T13:54:01.293Z,-2.21
2022-12-03T13:59:13.928Z,-2.35
2022-12-03T14:01:41.926Z,-2.45
2022-12-03T14:04:10.566Z,-2.48
2022-12-03T14:06:38.659Z,-2.39
2022-12-03T14:09:06.407Z,-2.48
2022-12-03T14:11:52.762Z,-2.48
2022-12-03T14:14:20.472Z,-2.48
2022-12-03T14:16:48.734Z,-2.41
2022-12-03T14:19:16.204Z,-2.49
2022-12-03T14:21:44.052Z,-2.63
2022-12-03T14:24:11.768Z,-2.58
2022-12-03T14:26:39.971Z,-2.50
2022-12-03T14:29:09.088Z,-2.53
2022-12-03T14:31:37.082Z,-2.67
2022-12-03T14:34:04.673Z,-2.64
2022-12-03T14:36:32.605Z,-2.55
2022-12-03T14:39:11.780Z,-2.56
2022-12-03T14:41:58.111Z,-2.67
2022-12-03T14:44:25.927Z,-2.76
2022-12-03T14:46:57.473Z,-2.63
2022-12-03T14:49:26.159Z,-2.62
2022-12-03T14:51:53.852Z,-2.69
2022-12-03T14:54:22.124Z,-2.74
2022-12-03T14:56:51.342Z,-2.83
2022-12-03T14:59:22.998Z,-2.78
2022-12-03T15:01:54.601Z,-3.05
2022-12-03T15:04:24.668Z,-2.84
2022-12-03T15:06:52.413Z,-2.77
2022-12-03T15:09:26.407Z,-2.75
2022-12-03T15:11:55.360Z,-2.86
2022-12-03T15:14:23.303Z,-2.81
2022-12-03T15:16:51.920Z,-2.88
2022-12-03T15:22:04.848Z,-2.81
2022-12-03T15:24:32.131Z,-2.86
2022-12-03T15:26:59.930Z,-2.82
2022-12-03T15:29:27.712Z,-2.78
2022-12-03T15:31:55.706Z,-2.84
2022-12-03T15:34:23.525Z,-2.88
2022-12-03T15:36:51.652Z,-2.84
2022-12-03T15:42:04.880Z,-2.88
2022-12-03T15:44:32.087Z,-2.79
2022-12-03T15:47:02.108Z,-2.87
2022-12-03T15:49:29.532Z,-2.76
2022-12-03T15:54:45.225Z,-2.79
2022-12-03T15:59:57.611Z,-2.81
2022-12-03T16:02:25.408Z,-2.59
2022-12-03T16:04:53.325Z,-2.74
2022-12-03T16:07:21.716Z,-2.74
2022-12-03T16:09:49.342Z,-2.67
2022-12-03T16:12:19.155Z,-2.74
2022-12-03T16:14:46.590Z,-2.83
2022-12-03T16:17:14.277Z,-2.75
2022-12-03T16:19:41.833Z,-2.75
2022-12-03T16:22:09.511Z,-2.71
2022-12-03T16:24:37.027Z,-2.71
2022-12-03T16:27:05.053Z,-2.68
2022-12-03T16:29:34.967Z,-2.74
2022-12-03T16:32:03.078Z,-2.57
2022-12-03T16:34:36.138Z,-2.59
2022-12-03T16:37:04.930Z,-2.67
2022-12-03T16:42:20.619Z,-2.66
2022-12-03T16:45:12.367Z,-2.55
2022-12-03T16:47:49.792Z,-2.57
2022-12-03T16:50:29.360Z,-2.63
2022-12-03T16:53:04.613Z,-2.67
2022-12-03T16:55:39.938Z,-2.76
2022-12-03T16:58:22.521Z,-2.90
2022-12-03T17:01:02.198Z,-2.86
2022-12-03T17:04:01.288Z,-2.80
2022-12-03T17:06:36.625Z,-2.82
2022-12-03T17:09:07.158Z,-2.68
2022-12-03T17:11:39.624Z,-2.67
2022-12-03T17:14:14.192Z,-2.70
2022-12-03T17:16:43.475Z,-2.72
2022-12-03T17:19:14.162Z,-2.74
2022-12-03T17:21:48.681Z,-2.83
2022-12-03T17:24:22.239Z,-2.91
2022-12-03T17:26:51.672Z,-2.73
2022-12-03T17:29:37.782Z,-2.66
2022-12-03T17:32:11.160Z,-2.67
2022-12-03T17:34:46.918Z,-2.65
2022-12-03T17:37:15.979Z,-2.82
2022-12-03T17:39:51.739Z,-2.62
2022-12-03T17:42:22.819Z,-2.67
2022-12-03T17:44:50.978Z,-2.76
2022-12-03T17:47:18.465Z,-2.71
2022-12-03T17:49:46.204Z,-2.59
2022-12-03T17:52:25.580Z,-2.57
2022-12-03T17:55:17.752Z,-2.51
2022-12-03T17:58:19.959Z,-2.56
2022-12-03T18:01:48.796Z,-2.57
2022-12-03T18:04:37.161Z,-2.62
2022-12-03T18:07:34.320Z,-2.72
2022-12-03T18:10:14.635Z,-2.66
2022-12-03T18:12:45.851Z,-2.67
2022-12-03T18:15:19.718Z,-2.67
2022-12-03T18:18:00.007Z,-2.56
2022-12-03T18:21:07.594Z,-2.69
2022-12-03T18:24:15.840Z,-2.54
2022-12-03T18:26:51.510Z,-2.53
2022-12-03T18:29:25.308Z,-2.63
2022-12-03T18:31:56.997Z,-2.65
2022-12-03T18:34:26.281Z,-2.64
2022-12-03T18:36:59.993Z,-2.58
2022-12-03T18:39:39.046Z,-2.67
2022-12-03T18:42:19.938Z,-2.70
2022-12-03T18:44:54.196Z,-2.64
2022-12-03T18:47:29.878Z,-2.71
2022-12-03T18:50:00.351Z,-2.64
2022-12-03T18:52:38.710Z,-2.61
2022-12-03T18:55:11.911Z,-2.72
2022-12-03T18:57:44.967Z,-2.72
2022-12-03T19:00:15.555Z,-2.59
2022-12-03T19:03:15.281Z,-2.70
2022-12-03T19:05:38.431Z,-2.62
2022-12-03T19:08:15.231Z,-2.69
2022-12-03T19:10:57.923Z,-2.75
2022-12-03T19:13:29.303Z,-2.61
2022-12-03T19:16:02.932Z,-2.67
2022-12-03T19:18:33.051Z,-2.64
2022-12-03T19:21:15.682Z,-2.64
2022-12-03T19:24:15.985Z,-2.59
2022-12-03T19:26:33.783Z,-2.48
2022-12-03T19:29:04.285Z,-2.47
2022-12-03T19:31:33.683Z,-2.54
2022-12-03T19:34:01.239Z,-2.59
2022-12-03T19:36:31.361Z,-2.43
2022-12-03T19:39:00.774Z,-2.42
2022-12-03T19:41:30.914Z,-2.56
2022-12-03T19:43:59.837Z,-2.68
2022-12-03T19:46:30.712Z,-2.51
2022-12-03T19:48:59.235Z,-2.49
2022-12-03T19:51:36.037Z,-2.58
2022-12-03T19:54:06.768Z,-2.45
2022-12-03T19:56:35.116Z,-2.46
2022-12-03T19:59:05.396Z,-2.49
2022-12-03T20:01:36.323Z,-2.48
2022-12-03T20:04:04.413Z,-2.46
2022-12-03T20:06:34.520Z,-2.38
2022-12-03T20:09:12.259Z,-2.33
2022-12-03T20:11:41.400Z,-2.50
2022-12-03T20:14:12.484Z,-2.35
2022-12-03T20:16:39.973Z,-2.39
2022-12-03T20:19:12.282Z,-2.48
2022-12-03T20:21:41.128Z,-2.37
2022-12-03T20:24:10.214Z,-2.47
2022-12-03T20:26:37.752Z,-2.39
2022-12-03T20:29:05.727Z,-2.38
2022-12-03T20:31:33.535Z,-2.32
2022-12-03T20:34:03.253Z,-2.35
2022-12-03T20:36:32.376Z,-2.37
2022-12-03T20:39:02.993Z,-2.34
2022-12-03T20:41:30.727Z,-2.36
2022-12-03T20:43:58.560Z,-2.33
2022-12-03T20:46:29.570Z,-2.38
2022-12-03T20:48:58.538Z,-2.40
2022-12-03T20:51:29.802Z,-2.41
2022-12-03T20:53:59.040Z,-2.35
2022-12-03T20:56:31.843Z,-2.32
2022-12-03T20:59:03.060Z,-2.34
2022-12-03T21:01:30.924Z,-2.32
2022-12-03T21:03:58.869Z,-2.36
2022-12-03T21:06:28.169Z,-2.34
2022-12-03T21:08:57.602Z,-2.39
2022-12-03T21:11:29.656Z,-2.31
2022-12-03T21:13:59.125Z,-2.38
2022-12-03T21:16:58.962Z,-2.30
2022-12-03T21:19:18.449Z,-2.30
2022-12-03T21:21:46.151Z,-2.26
2022-12-03T21:24:14.076Z,-2.25
2022-12-03T21:26:41.967Z,-2.22
2022-12-03T21:29:09.853Z,-2.22
2022-12-03T21:31:38.605Z,-2.26
2022-12-03T21:34:08.530Z,-2.30
2022-12-03T21:36:36.291Z,-2.24
2022-12-03T21:39:05.538Z,-2.21
2022-12-03T21:41:35.201Z,-2.18
2022-12-03T21:44:03.869Z,-2.13
2022-12-03T21:47:09.875Z,-2.15
2022-12-03T21:49:20.398Z,-2.13
2022-12-03T21:51:47.728Z,-2.19
2022-12-03T21:54:15.845Z,-2.14
2022-12-03T21:56:43.399Z,-2.18
2022-12-03T21:59:11.328Z,-2.17
2022-12-03T22:01:41.660Z,-2.16
2022-12-03T22:04:13.360Z,-2.18
2022-12-03T22:06:40.995Z,-2.19
2022-12-03T22:09:08.735Z,-2.21
2022-12-03T22:11:36.097Z,-2.14
2022-12-03T22:14:04.963Z,-2.14
2022-12-03T22:16:32.580Z,-2.15
2022-12-03T22:19:00.259Z,-2.20
2022-12-03T22:21:27.796Z,-2.20
2022-12-03T22:23:56.117Z,-2.16
2022-12-03T22:26:23.422Z,-2.19
2022-12-03T22:28:50.910Z,-2.19
2022-12-03T22:31:18.819Z,-2.10
2022-12-03T22:33:48.575Z,-2.15
2022-12-03T22:36:21.126Z,-2.19
2022-12-03T22:38:50.544Z,-2.19
2022-12-03T22:41:18.858Z,-2.14
2022-12-03T22:43:47.820Z,-2.17
2022-12-03T22:46:16.066Z,-2.14
2022-12-03T22:48:45.611Z,-2.16
2022-12-03T22:51:18.745Z,-2.19
2022-12-03T22:53:46.584Z,-2.10
2022-12-03T22:56:14.114Z,-2.05
2022-12-03T22:58:41.736Z,-2.08
2022-12-03T23:01:09.098Z,-2.05
2022-12-03T23:03:37.385Z,-2.07
2022-12-03T23:06:12.261Z,-2.16
2022-12-03T23:08:39.914Z,-2.10
2022-12-03T23:11:07.879Z,-2.09
2022-12-03T23:13:35.541Z,-2.09
2022-12-03T23:16:03.678Z,-2.08
2022-12-03T23:18:31.519Z,-2.09
2022-12-03T23:20:59.274Z,-2.02
2022-12-03T23:23:27.724Z,-2.04
2022-12-03T23:26:00.805Z,-2.10
2022-12-03T23:28:30.702Z,-2.06
2022-12-03T23:30:58.055Z,-2.09
2022-12-03T23:33:25.892Z,-1.97
2022-12-03T23:35:53.471Z,-2.08
2022-12-03T23:38:21.052Z,-2.16
2022-12-03T23:40:48.638Z,-2.29
2022-12-03T23:43:16.586Z,-2.15
2022-12-03T23:45:43.786Z,-2.20
2022-12-03T23:48:11.291Z,-2.30
2022-12-03T23:50:39.889Z,-2.35
2022-12-03T23:53:07.462Z,-2.14
2022-12-03T23:55:34.748Z,-2.05
2022-12-03T23:58:02.257Z,-2.11
